Time;durP1;ratioP1;P1;durP2;ratioP2;P2;SDS_P1;SDS_P2;PMS_P1;PMS_P2;Temp;Humidity;BMP_temperature;BMP_pressure;BME280_temperature;BME280_humidity;BME280_pressure;Samples;Min_cycle;Max_cycle;Signal;HPM_P1;HPM_P2
2022/07/24 00:01:25;;;;;;;;;;;;;;;25.49;92.24;99350.63;5053013;28;19920;-39
2022/07/24 00:03:50;;;;;;;;;;;;;;;24.91;94.18;99344.19;5052710;28;20874;-39
2022/07/24 00:06:15;;;;;;;;;;;;;;;25.04;94.56;99342.16;5052599;28;19971;-39
2022/07/24 00:08:41;;;;;;;;;;;;;;;24.68;95.53;99343.50;5052217;28;20022;-39
2022/07/24 00:11:06;;;;;;;;;;;;;;;24.67;94.98;99351.53;5052388;28;19985;-39
2022/07/24 00:13:31;;;;;;;;;;;;;;;25.11;92.54;99349.50;5053062;28;20528;-39
2022/07/24 00:15:56;;;;;;;;;;;;;;;25.03;91.71;99345.75;5054532;28;19927;-39
2022/07/24 00:18:22;;;;;;;;;;;;;;;24.67;95.09;99352.38;5051529;28;19999;-39
2022/07/24 00:20:47;;;;;;;;;;;;;;;24.10;96.35;99354.47;5050958;28;19981;-39
2022/07/24 00:23:12;;;;;;;;;;;;;;;25.05;93.73;99342.97;5053079;28;19951;-39
2022/07/24 00:25:37;;;;;;;;;;;;;;;25.40;92.85;99344.34;5052842;28;19921;-39
2022/07/24 00:28:03;;;;;;;;;;;;;;;25.55;91.98;99348.28;5052702;28;19939;-39
2022/07/24 00:30:28;;;;;;;;;;;;;;;25.50;91.21;99344.38;5051970;28;20459;-39
2022/07/24 00:32:53;;;;;;;;;;;;;;;25.50;90.99;99339.09;5052775;28;20249;-39
2022/07/24 00:35:18;;;;;;;;;;;;;;;24.40;95.70;99342.34;5051583;28;20010;-39
2022/07/24 00:37:46;;;;;;;;;;;;;;;24.16;95.46;99338.16;5053891;28;20550;-39
2022/07/24 00:40:11;;;;;;;;;;;;;;;24.04;97.70;99336.56;5051997;28;19916;-39
2022/07/24 00:42:36;;;;;;;;;;;;;;;24.93;94.62;99328.22;5050647;28;19920;-39
2022/07/24 00:45:02;;;;;;;;;;;;;;;25.16;94.02;99326.25;5052975;28;20321;-39
2022/07/24 00:47:27;;;;;;;;;;;;;;;25.28;93.80;99335.72;5051919;28;19947;-39
2022/07/24 00:49:52;;;;;;;;;;;;;;;24.74;97.39;99328.97;5053331;28;19928;-39
2022/07/24 00:52:17;;;;;;;;;;;;;;;25.42;95.01;99326.59;5052052;28;20695;-39
2022/07/24 00:54:43;;;;;;;;;;;;;;;25.40;94.13;99336.44;5052563;28;19995;-39
2022/07/24 00:57:08;;;;;;;;;;;;;;;25.28;94.47;99330.47;5051749;28;20036;-39
2022/07/24 00:59:33;;;;;;;;;;;;;;;25.17;96.50;99331.34;5053204;28;19959;-39
2022/07/24 01:01:59;;;;;;;;;;;;;;;25.19;95.98;99326.00;5051262;28;19920;-39
2022/07/24 01:04:24;;;;;;;;;;;;;;;24.89;96.89;99327.66;5053356;28;19946;-39
2022/07/24 01:06:49;;;;;;;;;;;;;;;24.52;98.90;99322.91;5051177;28;19959;-39
2022/07/24 01:09:15;;;;;;;;;;;;;;;23.39;100.00;99328.59;5051979;28;20041;-39
2022/07/24 01:11:40;;;;;;;;;;;;;;;22.73;100.00;99319.78;5047715;28;19957;-39
2022/07/24 01:14:06;;;;;;;;;;;;;;;23.69;100.00;99313.94;5051565;28;19925;-39
2022/07/24 01:16:32;;;;;;;;;;;;;;;23.60;100.00;99309.44;5052835;28;20038;-39
2022/07/24 01:18:57;;;;;;;;;;;;;;;23.46;100.00;99307.09;5052234;28;20317;-39
2022/07/24 01:21:23;;;;;;;;;;;;;;;24.16;100.00;99306.59;5051831;28;20378;-39
2022/07/24 01:23:48;;;;;;;;;;;;;;;24.70;98.68;99295.97;5052291;28;19963;-39
2022/07/24 01:26:13;;;;;;;;;;;;;;;24.12;100.00;99307.81;5050598;28;19972;-39
2022/07/24 01:28:38;;;;;;;;;;;;;;;24.60;98.08;99309.91;5051880;28;19920;-39
2022/07/24 01:31:04;;;;;;;;;;;;;;;24.80;95.68;99296.84;5051900;28;20417;-39
2022/07/24 01:33:29;;;;;;;;;;;;;;;24.48;97.16;99300.44;5050517;28;19920;-39
2022/07/24 01:35:54;;;;;;;;;;;;;;;24.12;96.13;99304.34;5051239;28;19916;-39
2022/07/24 01:38:20;;;;;;;;;;;;;;;24.48;97.12;99305.72;5051023;28;19924;-39
2022/07/24 01:40:45;;;;;;;;;;;;;;;24.75;95.56;99301.69;5051177;28;20361;-39
2022/07/24 01:43:10;;;;;;;;;;;;;;;24.48;96.33;99310.97;5049694;28;20020;-39
2022/07/24 01:45:35;;;;;;;;;;;;;;;24.53;97.24;99313.22;5049363;28;19927;-39
2022/07/24 01:48:01;;;;;;;;;;;;;;;24.10;97.92;99316.78;5049899;28;19928;-39
2022/07/24 01:50:26;;;;;;;;;;;;;;;24.50;97.40;99314.31;5051712;28;19936;-39
2022/07/24 01:52:52;;;;;;;;;;;;;;;24.28;99.33;99317.88;5051112;28;20768;-39
2022/07/24 01:55:18;;;;;;;;;;;;;;;24.15;99.86;99318.09;5050059;28;20436;-39
2022/07/24 01:57:43;;;;;;;;;;;;;;;24.43;98.66;99313.97;5050566;28;20023;-39
2022/07/24 02:00:12;;;;;;;;;;;;;;;24.23;98.47;99311.34;5050996;28;19925;-39
2022/07/24 02:02:37;;;;;;;;;;;;;;;24.06;98.38;99316.19;5050935;28;20247;-39
2022/07/24 02:05:02;;;;;;;;;;;;;;;24.23;98.09;99312.19;5052113;28;19939;-39
2022/07/24 02:07:28;;;;;;;;;;;;;;;24.09;98.37;99315.97;5049109;28;19956;-39
2022/07/24 02:09:55;;;;;;;;;;;;;;;24.02;98.00;99309.53;5049326;28;20224;-39
2022/07/24 02:12:20;;;;;;;;;;;;;;;24.19;97.94;99305.50;5050969;28;20403;-39
2022/07/24 02:14:45;;;;;;;;;;;;;;;23.72;98.95;99315.47;5049565;28;19927;-39
2022/07/24 02:17:10;;;;;;;;;;;;;;;23.95;99.40;99308.38;5052177;28;20333;-39
2022/07/24 02:19:36;;;;;;;;;;;;;;;23.63;100.00;99311.81;5048952;28;20785;-39
2022/07/24 02:22:01;;;;;;;;;;;;;;;23.96;99.10;99310.03;5052062;28;20021;-39
2022/07/24 02:24:26;;;;;;;;;;;;;;;24.05;98.65;99304.03;5050122;28;19920;-39
2022/07/24 02:26:51;;;;;;;;;;;;;;;23.46;100.00;99315.81;5053383;28;19920;-39
2022/07/24 02:29:17;;;;;;;;;;;;;;;23.91;99.66;99306.97;5053034;28;19925;-39
2022/07/24 02:31:42;;;;;;;;;;;;;;;23.52;100.00;99307.44;5055657;28;20039;-39
2022/07/24 02:34:07;;;;;;;;;;;;;;;23.75;100.00;99296.88;5053717;28;20569;-39
2022/07/24 02:36:32;;;;;;;;;;;;;;;23.71;100.00;99300.69;5055147;28;20015;-39
2022/07/24 02:38:57;;;;;;;;;;;;;;;23.95;100.00;99303.94;5053126;28;20014;-39
2022/07/24 02:41:23;;;;;;;;;;;;;;;24.01;99.57;99299.97;5055052;28;19962;-39
2022/07/24 02:43:48;;;;;;;;;;;;;;;23.74;99.41;99296.03;5054454;28;19950;-39
2022/07/24 02:46:13;;;;;;;;;;;;;;;23.54;100.00;99307.31;5054596;28;19978;-39
2022/07/24 02:48:38;;;;;;;;;;;;;;;23.67;100.00;99300.06;5054635;28;19967;-39
2022/07/24 02:51:04;;;;;;;;;;;;;;;23.29;100.00;99304.03;5054736;28;19989;-39
2022/07/24 02:53:29;;;;;;;;;;;;;;;23.16;100.00;99304.16;5054493;28;19921;-39
2022/07/24 02:55:54;;;;;;;;;;;;;;;23.35;100.00;99300.06;5054499;28;20496;-39
2022/07/24 02:58:19;;;;;;;;;;;;;;;23.13;100.00;99308.84;5054518;28;20958;-39
2022/07/24 03:00:45;;;;;;;;;;;;;;;22.46;100.00;99317.50;5052627;28;20408;-39
2022/07/24 03:03:10;;;;;;;;;;;;;;;23.15;100.00;99305.13;5054840;28;20390;-39
2022/07/24 03:05:35;;;;;;;;;;;;;;;22.58;100.00;99311.31;5054854;28;19993;-39
2022/07/24 03:08:01;;;;;;;;;;;;;;;22.66;100.00;99305.47;5052119;28;19927;-39
2022/07/24 03:10:26;;;;;;;;;;;;;;;22.77;100.00;99310.72;5050541;28;19931;-39
2022/07/24 03:12:51;;;;;;;;;;;;;;;22.74;100.00;99311.81;5053759;28;19927;-39
2022/07/24 03:15:16;;;;;;;;;;;;;;;22.58;100.00;99300.81;5053812;28;20014;-39
2022/07/24 03:17:49;;;;;;;;;;;;;;;22.85;100.00;99308.31;5054483;28;20086;-39
2022/07/24 03:20:14;;;;;;;;;;;;;;;22.56;100.00;99307.97;5053255;28;20374;-39
2022/07/24 03:22:39;;;;;;;;;;;;;;;22.87;100.00;99303.78;5054328;28;19949;-39
2022/07/24 03:25:05;;;;;;;;;;;;;;;23.01;100.00;99299.28;5051985;28;19920;-39
2022/07/24 03:27:30;;;;;;;;;;;;;;;22.70;100.00;99299.88;5053568;28;19963;-39
2022/07/24 03:29:55;;;;;;;;;;;;;;;21.95;100.00;99310.78;5053094;28;19935;-39
2022/07/24 03:32:20;;;;;;;;;;;;;;;22.40;100.00;99303.06;5053837;28;20083;-39
2022/07/24 03:34:46;;;;;;;;;;;;;;;22.57;100.00;99296.50;5054468;28;20365;-39
2022/07/24 03:37:11;;;;;;;;;;;;;;;22.42;100.00;99301.16;5051249;28;20020;-39
2022/07/24 03:39:36;;;;;;;;;;;;;;;22.23;100.00;99295.63;5052383;28;19913;-39
2022/07/24 03:42:01;;;;;;;;;;;;;;;22.03;100.00;99299.72;5053103;28;19921;-39
2022/07/24 03:44:27;;;;;;;;;;;;;;;21.77;100.00;99305.09;5054172;28;19928;-39
2022/07/24 03:46:52;;;;;;;;;;;;;;;22.17;100.00;99290.81;5052970;28;19920;-39
2022/07/24 03:49:17;;;;;;;;;;;;;;;21.73;100.00;99298.41;5051242;28;19925;-39
2022/07/24 03:51:42;;;;;;;;;;;;;;;22.24;100.00;99289.44;5054017;28;19916;-39
2022/07/24 03:54:08;;;;;;;;;;;;;;;22.25;100.00;99301.59;5053276;28;19928;-39
2022/07/24 03:56:33;;;;;;;;;;;;;;;21.93;100.00;99299.56;5051591;28;19931;-39
2022/07/24 03:58:58;;;;;;;;;;;;;;;22.52;100.00;99299.50;5053334;28;20735;-39
2022/07/24 04:01:23;;;;;;;;;;;;;;;22.42;100.00;99295.91;5053681;28;20385;-39
2022/07/24 04:03:49;;;;;;;;;;;;;;;22.66;100.00;99292.34;5053128;28;19916;-39
2022/07/24 04:06:14;;;;;;;;;;;;;;;22.67;100.00;99299.25;5054216;28;19917;-39
2022/07/24 04:08:39;;;;;;;;;;;;;;;22.60;100.00;99298.06;5051879;28;21322;-39
2022/07/24 04:11:07;;;;;;;;;;;;;;;23.01;100.00;99297.47;5053271;28;20556;-39
2022/07/24 04:13:32;;;;;;;;;;;;;;;22.95;100.00;99306.66;5053356;28;19927;-39
2022/07/24 04:15:57;;;;;;;;;;;;;;;22.85;100.00;99303.06;5052643;28;19924;-39
2022/07/24 04:18:23;;;;;;;;;;;;;;;22.94;100.00;99306.78;5052739;28;20019;-39
2022/07/24 04:20:48;;;;;;;;;;;;;;;22.88;100.00;99299.41;5051278;28;19921;-39
2022/07/24 04:23:13;;;;;;;;;;;;;;;22.95;100.00;99298.78;5053259;28;19971;-39
2022/07/24 04:25:39;;;;;;;;;;;;;;;23.83;100.00;99296.22;5053364;28;19921;-39
2022/07/24 04:28:04;;;;;;;;;;;;;;;23.85;100.00;99296.94;5051571;28;19921;-39
2022/07/24 04:30:30;;;;;;;;;;;;;;;23.97;100.00;99293.28;5051595;28;19924;-39
2022/07/24 04:32:55;;;;;;;;;;;;;;;23.60;100.00;99298.91;5052409;28;19977;-39
2022/07/24 04:35:20;;;;;;;;;;;;;;;23.68;100.00;99296.50;5053819;28;20369;-47
2022/07/24 04:37:46;;;;;;;;;;;;;;;23.75;100.00;99292.44;5051136;28;19925;-39
2022/07/24 04:40:11;;;;;;;;;;;;;;;23.71;100.00;99287.53;5050384;28;20413;-39
2022/07/24 04:42:37;;;;;;;;;;;;;;;22.74;100.00;99284.72;5051821;28;19931;-39
2022/07/24 04:45:02;;;;;;;;;;;;;;;23.70;100.00;99284.06;5052689;28;20613;-39
2022/07/24 04:47:27;;;;;;;;;;;;;;;23.41;100.00;99293.50;5052976;28;20334;-39
2022/07/24 04:49:53;;;;;;;;;;;;;;;23.64;100.00;99284.56;5049663;28;19928;-39
2022/07/24 04:52:18;;;;;;;;;;;;;;;23.51;100.00;99294.41;5051327;28;19926;-39
2022/07/24 04:54:43;;;;;;;;;;;;;;;22.82;100.00;99292.00;5053016;28;19923;-39
2022/07/24 04:57:08;;;;;;;;;;;;;;;23.78;100.00;99289.53;5052203;28;19927;-39
2022/07/24 04:59:33;;;;;;;;;;;;;;;23.78;100.00;99289.53;5051602;28;19935;-39
2022/07/24 05:01:59;;;;;;;;;;;;;;;23.97;100.00;99294.13;5051661;28;19920;-39
2022/07/24 05:04:24;;;;;;;;;;;;;;;23.40;100.00;99297.91;5053630;28;19920;-39
2022/07/24 05:06:49;;;;;;;;;;;;;;;23.63;100.00;99292.56;5052703;28;19928;-39
2022/07/24 05:09:14;;;;;;;;;;;;;;;23.30;100.00;99292.53;5051999;28;19924;-39
2022/07/24 05:11:40;;;;;;;;;;;;;;;23.37;100.00;99293.72;5050819;28;19928;-39
2022/07/24 05:14:05;;;;;;;;;;;;;;;23.77;100.00;99292.31;5052991;28;19939;-39
2022/07/24 05:16:30;;;;;;;;;;;;;;;24.03;100.00;99297.22;5052364;28;19931;-39
2022/07/24 05:18:55;;;;;;;;;;;;;;;24.32;100.00;99294.78;5051916;28;19920;-39
2022/07/24 05:21:21;;;;;;;;;;;;;;;24.28;100.00;99296.81;5049238;28;20586;-39
2022/07/24 05:23:46;;;;;;;;;;;;;;;24.40;99.96;99290.53;5051910;28;19916;-39
2022/07/24 05:26:11;;;;;;;;;;;;;;;24.44;100.00;99293.72;5053563;28;19973;-39
2022/07/24 05:28:36;;;;;;;;;;;;;;;24.11;100.00;99287.72;5052410;28;20389;-39
2022/07/24 05:31:02;;;;;;;;;;;;;;;24.60;100.00;99283.59;5049892;28;19925;-39
2022/07/24 05:33:27;;;;;;;;;;;;;;;25.00;98.39;99281.94;5050808;28;19912;-39
2022/07/24 05:35:52;;;;;;;;;;;;;;;24.70;98.32;99285.41;5052507;28;19920;-39
2022/07/24 05:38:17;;;;;;;;;;;;;;;24.71;98.09;99279.22;5053346;28;19920;-39
2022/07/24 05:40:43;;;;;;;;;;;;;;;24.63;98.77;99278.06;5051310;28;19947;-39
2022/07/24 05:43:08;;;;;;;;;;;;;;;24.53;97.88;99277.19;5050918;28;20480;-39
2022/07/24 05:45:33;;;;;;;;;;;;;;;24.77;97.75;99278.66;5052029;28;19969;-39
2022/07/24 05:47:58;;;;;;;;;;;;;;;25.15;96.91;99282.38;5052518;28;19978;-39
2022/07/24 05:50:24;;;;;;;;;;;;;;;25.27;97.21;99283.97;5050674;28;19920;-39
2022/07/24 05:52:49;;;;;;;;;;;;;;;25.35;96.09;99275.38;5051394;28;19939;-39
2022/07/24 05:55:14;;;;;;;;;;;;;;;25.42;95.64;99274.69;5051933;28;19927;-39
2022/07/24 05:57:39;;;;;;;;;;;;;;;24.67;96.81;99277.78;5053381;28;19927;-39
2022/07/24 06:00:05;;;;;;;;;;;;;;;25.44;97.98;99275.38;5051290;28;19920;-39
2022/07/24 06:02:30;;;;;;;;;;;;;;;25.66;94.45;99270.84;5055250;28;19946;-39
2022/07/24 06:04:55;;;;;;;;;;;;;;;23.91;98.45;99275.41;5055086;28;20278;-39
2022/07/24 06:07:21;;;;;;;;;;;;;;;25.20;97.75;99259.97;5056053;28;19975;-39
2022/07/24 06:09:46;;;;;;;;;;;;;;;25.27;97.60;99265.50;5055998;28;20251;-39
2022/07/24 06:12:11;;;;;;;;;;;;;;;24.45;100.00;99284.03;5055926;28;19920;-39
2022/07/24 06:14:36;;;;;;;;;;;;;;;25.18;97.21;99272.44;5055793;28;19925;-39
2022/07/24 06:17:02;;;;;;;;;;;;;;;26.02;93.38;99265.81;5055104;28;19926;-39
2022/07/24 06:19:27;;;;;;;;;;;;;;;25.29;96.37;99273.28;5055091;28;19920;-39
2022/07/24 06:21:52;;;;;;;;;;;;;;;26.18;92.67;99263.41;5055873;28;20003;-39
2022/07/24 06:24:17;;;;;;;;;;;;;;;25.81;93.68;99266.78;5054718;28;20929;-39
2022/07/24 06:26:43;;;;;;;;;;;;;;;25.21;95.21;99271.34;5053423;28;19931;-39
2022/07/24 06:29:08;;;;;;;;;;;;;;;25.07;96.71;99266.44;5055184;28;20361;-39
2022/07/24 06:31:33;;;;;;;;;;;;;;;25.81;96.42;99268.59;5055921;28;19931;-39
2022/07/24 06:33:58;;;;;;;;;;;;;;;24.52;97.32;99267.63;5054117;28;19924;-39
2022/07/24 06:36:24;;;;;;;;;;;;;;;25.00;98.98;99277.50;5053225;28;19920;-39
2022/07/24 06:38:49;;;;;;;;;;;;;;;25.26;95.32;99263.84;5053756;28;19927;-39
2022/07/24 06:41:14;;;;;;;;;;;;;;;26.07;94.42;99258.34;5055765;28;20015;-39
2022/07/24 06:43:39;;;;;;;;;;;;;;;25.90;91.83;99266.97;5056547;28;20007;-39
2022/07/24 06:46:05;;;;;;;;;;;;;;;26.32;91.84;99261.31;5053960;28;20725;-39
2022/07/24 06:48:30;;;;;;;;;;;;;;;26.37;92.29;99264.38;5053859;28;19920;-39
2022/07/24 06:50:56;;;;;;;;;;;;;;;26.63;89.52;99265.41;5054436;28;19959;-39
2022/07/24 06:53:21;;;;;;;;;;;;;;;27.15;88.29;99258.75;5055406;28;19966;-39
2022/07/24 06:55:47;;;;;;;;;;;;;;;26.70;86.78;99255.91;5055476;28;19975;-39
2022/07/24 06:58:12;;;;;;;;;;;;;;;26.87;85.61;99258.78;5054242;28;20153;-39
2022/07/24 07:00:37;;;;;;;;;;;;;;;26.98;87.58;99257.72;5035570;28;19921;-39
2022/07/24 07:03:02;;;;;;;;;;;;;;;27.64;86.98;99253.94;5054346;28;19971;-39
2022/07/24 07:05:28;;;;;;;;;;;;;;;26.97;86.43;99256.91;5055067;28;19927;-39
2022/07/24 07:07:53;;;;;;;;;;;;;;;27.38;83.50;99249.41;5053085;28;19956;-39
2022/07/24 07:10:18;;;;;;;;;;;;;;;27.16;84.97;99260.41;5052671;28;19964;-39
2022/07/24 07:12:43;;;;;;;;;;;;;;;27.35;85.01;99265.59;5052742;28;19921;-39
2022/07/24 07:15:09;;;;;;;;;;;;;;;26.92;85.87;99267.09;5055541;28;19955;-39
2022/07/24 07:17:36;;;;;;;;;;;;;;;27.65;84.05;99261.75;5052238;28;19927;-39
2022/07/24 07:20:01;;;;;;;;;;;;;;;27.67;83.14;99272.19;5052285;28;19970;-39
2022/07/24 07:22:27;;;;;;;;;;;;;;;28.34;82.41;99268.06;5054855;28;19921;-39
2022/07/24 07:24:52;;;;;;;;;;;;;;;28.56;81.02;99271.19;5053945;28;19931;-39
2022/07/24 07:27:17;;;;;;;;;;;;;;;28.30;79.65;99264.06;5052518;28;20015;-39
2022/07/24 07:29:42;;;;;;;;;;;;;;;29.32;77.56;99266.84;5052909;28;20724;-39
2022/07/24 07:32:07;;;;;;;;;;;;;;;29.19;75.20;99268.16;5053693;28;20022;-39
2022/07/24 07:34:33;;;;;;;;;;;;;;;29.32;75.85;99259.69;5053313;28;19931;-39
2022/07/24 07:36:58;;;;;;;;;;;;;;;29.80;71.00;99260.75;5054306;28;20030;-39
2022/07/24 07:39:23;;;;;;;;;;;;;;;29.94;73.31;99255.78;5052660;28;20354;-39
2022/07/24 07:41:48;;;;;;;;;;;;;;;30.79;71.53;99256.09;5054350;28;19920;-39
2022/07/24 07:44:14;;;;;;;;;;;;;;;31.26;67.37;99254.34;5054054;28;19951;-39
2022/07/24 07:46:39;;;;;;;;;;;;;;;30.63;63.44;99250.81;5055182;28;19920;-39
2022/07/24 07:49:04;;;;;;;;;;;;;;;30.95;63.95;99260.53;5052367;28;19920;-39
2022/07/24 07:51:29;;;;;;;;;;;;;;;31.43;62.05;99258.59;5054523;28;19928;-39
2022/07/24 07:53:55;;;;;;;;;;;;;;;31.83;61.44;99263.78;5052582;28;19943;-39
2022/07/24 07:56:20;;;;;;;;;;;;;;;31.86;60.88;99263.41;5053988;28;20050;-39
2022/07/24 07:58:45;;;;;;;;;;;;;;;32.10;60.37;99265.06;5051269;28;19924;-39
2022/07/24 08:01:11;;;;;;;;;;;;;;;31.95;59.65;99262.31;5054143;28;19917;-39
2022/07/24 08:03:36;;;;;;;;;;;;;;;31.85;59.94;99261.75;5053080;28;19920;-39
2022/07/24 08:06:01;;;;;;;;;;;;;;;31.68;58.17;99250.41;5053180;28;19927;-39
2022/07/24 08:08:26;;;;;;;;;;;;;;;31.66;63.77;99255.13;5054372;28;20382;-39
2022/07/24 08:10:52;;;;;;;;;;;;;;;32.40;57.23;99243.75;5050268;28;19937;-40
2022/07/24 08:13:18;;;;;;;;;;;;;;;32.12;58.53;99243.56;5052333;28;19926;-39
2022/07/24 08:15:43;;;;;;;;;;;;;;;31.99;59.08;99242.34;5052965;28;19921;-40
2022/07/24 08:18:08;;;;;;;;;;;;;;;31.23;60.05;99246.75;5052945;28;20010;-39
2022/07/24 08:20:33;;;;;;;;;;;;;;;33.22;55.85;99242.75;5050644;28;20680;-39
2022/07/24 08:22:59;;;;;;;;;;;;;;;32.37;54.69;99246.81;5049870;28;19920;-39
2022/07/24 08:25:25;;;;;;;;;;;;;;;31.38;59.34;99249.44;5053746;28;19969;-40
2022/07/24 08:27:50;;;;;;;;;;;;;;;32.50;55.99;99247.81;5053155;28;19924;-40
2022/07/24 08:30:15;;;;;;;;;;;;;;;32.91;54.78;99247.31;5051033;28;20381;-39
2022/07/24 08:32:41;;;;;;;;;;;;;;;32.95;53.07;99246.94;5052337;28;19983;-39
2022/07/24 08:35:06;;;;;;;;;;;;;;;32.29;54.36;99247.69;5052328;28;19956;-40
2022/07/24 08:37:38;;;;;;;;;;;;;;;33.41;52.10;99249.28;5048755;28;20595;-40
2022/07/24 08:40:04;;;;;;;;;;;;;;;33.40;52.28;99239.66;5051422;28;20266;-40
2022/07/24 08:42:29;;;;;;;;;;;;;;;32.16;53.50;99243.03;5049696;28;20433;-39
2022/07/24 08:44:55;;;;;;;;;;;;;;;32.21;55.78;99240.63;5033290;28;19920;-39
2022/07/24 08:47:20;;;;;;;;;;;;;;;32.17;55.79;99238.50;5050119;28;19999;-40
2022/07/24 08:49:45;;;;;;;;;;;;;;;32.15;56.24;99240.53;5049364;28;20241;-40
2022/07/24 08:52:10;;;;;;;;;;;;;;;32.49;53.92;99238.13;5049689;28;19920;-40
2022/07/24 08:54:36;;;;;;;;;;;;;;;33.20;52.43;99239.44;5052647;28;19916;-39
2022/07/24 08:57:02;;;;;;;;;;;;;;;33.90;53.12;99243.19;5052852;28;19978;-40
2022/07/24 08:59:27;;;;;;;;;;;;;;;33.38;49.73;99239.00;5052069;28;20416;-40
2022/07/24 09:01:53;;;;;;;;;;;;;;;34.64;49.78;99247.16;5051015;28;19927;-40
2022/07/24 09:04:36;;;;;;;;;;;;;;;33.70;53.09;99245.69;5050357;28;19933;-40
2022/07/24 09:07:03;;;;;;;;;;;;;;;34.90;52.82;99233.91;5053186;28;20591;-40
2022/07/24 09:09:28;;;;;;;;;;;;;;;35.27;48.44;99237.09;5051732;28;19913;-40
2022/07/24 09:12:14;;;;;;;;;;;;;;;35.93;42.69;99230.16;5049359;28;19920;-40
2022/07/24 09:14:40;;;;;;;;;;;;;;;34.30;46.54;99230.09;5052543;28;19931;-40
2022/07/24 09:17:06;;;;;;;;;;;;;;;34.48;54.72;99232.25;5053090;28;20290;-40
2022/07/24 09:19:31;;;;;;;;;;;;;;;34.54;52.56;99232.28;5051078;28;19924;-40
2022/07/24 09:21:56;;;;;;;;;;;;;;;34.09;49.76;99231.78;5050604;28;19920;-40
2022/07/24 09:24:22;;;;;;;;;;;;;;;34.07;49.45;99239.19;5049200;28;19921;-40
2022/07/24 09:26:51;;;;;;;;;;;;;;;34.83;52.48;99229.53;5052350;28;20515;-40
2022/07/24 09:29:17;;;;;;;;;;;;;;;35.58;46.11;99230.31;5051923;28;19956;-40
2022/07/24 09:31:48;;;;;;;;;;;;;;;35.79;44.43;99219.44;5051089;28;20003;-40
2022/07/24 09:34:14;;;;;;;;;;;;;;;35.94;42.52;99226.41;5050287;28;19924;-40
2022/07/24 09:36:39;;;;;;;;;;;;;;;36.55;44.79;99228.75;5051076;28;19943;-40
2022/07/24 09:39:06;;;;;;;;;;;;;;;35.63;43.46;99219.00;5050314;28;19920;-40
2022/07/24 09:41:31;;;;;;;;;;;;;;;36.46;45.02;99222.00;5051456;28;20290;-40
2022/07/24 09:44:00;;;;;;;;;;;;;;;36.07;45.16;99222.91;5050549;28;20393;-40
2022/07/24 09:46:26;;;;;;;;;;;;;;;35.72;46.53;99217.78;5050500;28;19916;-40
2022/07/24 09:48:58;;;;;;;;;;;;;;;35.27;46.84;99221.03;5050836;28;19931;-40
2022/07/24 09:51:25;;;;;;;;;;;;;;;36.05;44.67;99217.75;5049716;28;19924;-40
2022/07/24 09:53:57;;;;;;;;;;;;;;;35.39;42.69;99219.38;5048803;28;20029;-40
2022/07/24 09:56:23;;;;;;;;;;;;;;;35.77;46.03;99215.31;5050863;28;19986;-40
2022/07/24 09:58:55;;;;;;;;;;;;;;;37.54;39.72;99202.41;5049530;28;19924;-40
2022/07/24 10:01:22;;;;;;;;;;;;;;;35.80;43.53;99207.66;5050279;28;20023;-40
2022/07/24 10:03:48;;;;;;;;;;;;;;;37.70;39.56;99208.28;5050079;28;20975;-40
2022/07/24 10:06:15;;;;;;;;;;;;;;;36.85;43.74;99206.78;5051871;28;19921;-40
2022/07/24 10:08:41;;;;;;;;;;;;;;;36.68;41.32;99201.09;5051778;28;19917;-40
2022/07/24 10:11:07;;;;;;;;;;;;;;;37.66;39.14;99197.19;5051888;28;20369;-40
2022/07/24 10:13:33;;;;;;;;;;;;;;;37.43;40.78;99198.56;5050396;28;19920;-40
2022/07/24 10:16:13;;;;;;;;;;;;;;;37.13;43.73;99200.22;5047406;28;19983;-40
2022/07/24 10:18:41;;;;;;;;;;;;;;;35.96;45.10;99208.28;5052064;28;19947;-40
2022/07/24 10:21:09;;;;;;;;;;;;;;;34.55;48.29;99206.34;5051620;28;20915;-40
2022/07/24 10:23:40;;;;;;;;;;;;;;;35.14;48.30;99205.75;5051656;28;19932;-39
2022/07/24 10:26:06;;;;;;;;;;;;;;;35.95;44.00;99201.28;5049826;28;19974;-39
2022/07/24 10:28:41;;;;;;;;;;;;;;;34.95;43.25;99193.16;5049779;28;19920;-39
2022/07/24 10:31:08;;;;;;;;;;;;;;;35.51;42.79;99192.00;5049987;28;19920;-39
2022/07/24 10:33:34;;;;;;;;;;;;;;;36.46;45.99;99202.41;5051665;28;19931;-39
2022/07/24 10:36:00;;;;;;;;;;;;;;;36.59;39.63;99197.00;5048761;28;21029;-39
2022/07/24 10:38:38;;;;;;;;;;;;;;;35.93;41.89;99188.06;5050504;28;20819;-39
2022/07/24 10:41:05;;;;;;;;;;;;;;;36.85;40.17;99190.66;5049497;28;20942;-39
2022/07/24 10:43:30;;;;;;;;;;;;;;;36.35;40.68;99195.81;5052450;28;20073;-39
2022/07/24 10:45:56;;;;;;;;;;;;;;;36.78;37.69;99184.53;5050772;28;20820;-39
2022/07/24 10:48:21;;;;;;;;;;;;;;;36.89;37.94;99185.72;5054965;28;19916;-39
2022/07/24 10:50:59;;;;;;;;;;;;;;;37.44;40.35;99181.41;5055025;28;19921;-39
2022/07/24 10:53:24;;;;;;;;;;;;;;;36.67;43.41;99177.16;5054032;28;20039;-39
2022/07/24 10:55:50;;;;;;;;;;;;;;;36.73;40.27;99173.63;5049521;28;19920;-39
2022/07/24 10:58:15;;;;;;;;;;;;;;;35.75;44.16;99175.31;5053331;28;19921;-40
2022/07/24 11:00:50;;;;;;;;;;;;;;;37.42;40.38;99164.69;5053634;28;21038;-39
2022/07/24 11:03:19;;;;;;;;;;;;;;;36.79;41.59;99176.25;5054768;28;19946;-39
2022/07/24 11:06:11;;;;;;;;;;;;;;;37.54;39.56;99161.28;5051843;28;19946;-39
2022/07/24 11:08:37;;;;;;;;;;;;;;;37.68;42.17;99160.16;5053326;28;20538;-39
2022/07/24 11:11:06;;;;;;;;;;;;;;;37.50;40.07;99170.81;5054170;28;19928;-39
2022/07/24 11:13:31;;;;;;;;;;;;;;;38.55;38.59;99154.66;5054713;28;20079;-39
2022/07/24 11:16:16;;;;;;;;;;;;;;;38.07;35.93;99155.44;5055490;28;19940;-39
2022/07/24 11:18:42;;;;;;;;;;;;;;;36.79;35.61;99156.63;5048717;28;19981;-39
2022/07/24 11:21:08;;;;;;;;;;;;;;;38.75;36.27;99150.84;5052065;28;19962;-39
2022/07/24 11:23:33;;;;;;;;;;;;;;;38.25;38.31;99152.72;5053842;28;20558;-39
2022/07/24 11:26:20;;;;;;;;;;;;;;;38.06;37.19;99149.22;5054509;28;19916;-39
2022/07/24 11:29:04;;;;;;;;;;;;;;;37.06;37.12;99149.22;5048404;28;19970;-39
2022/07/24 11:31:30;;;;;;;;;;;;;;;38.28;41.27;99141.50;5055056;28;20991;-39
2022/07/24 11:33:55;;;;;;;;;;;;;;;38.20;35.87;99138.28;5052062;28;19920;-39
2022/07/24 11:36:20;;;;;;;;;;;;;;;36.37;42.19;99137.44;5052917;28;20404;-39
2022/07/24 11:38:45;;;;;;;;;;;;;;;37.77;40.11;99139.16;5051190;28;20725;-39
2022/07/24 11:41:10;;;;;;;;;;;;;;;37.14;37.07;99135.56;5051213;28;19920;-39
2022/07/24 11:43:48;;;;;;;;;;;;;;;38.03;36.86;99128.16;5053990;28;19916;-39
2022/07/24 11:46:14;;;;;;;;;;;;;;;37.12;37.99;99142.22;5053721;28;20331;-39
2022/07/24 11:48:39;;;;;;;;;;;;;;;38.43;37.09;99129.50;5054449;28;19916;-39
2022/07/24 11:51:05;;;;;;;;;;;;;;;39.02;36.02;99124.38;5052080;28;19985;-39
2022/07/24 11:53:30;;;;;;;;;;;;;;;39.06;34.11;99122.88;5054310;28;20495;-39
2022/07/24 11:56:03;;;;;;;;;;;;;;;37.17;36.59;99134.31;5054239;28;20452;-39
2022/07/24 11:58:28;;;;;;;;;;;;;;;39.20;35.62;99121.59;5050458;28;19916;-39
2022/07/24 12:00:53;;;;;;;;;;;;;;;38.71;35.36;99128.97;5050171;28;19930;-39
2022/07/24 12:03:20;;;;;;;;;;;;;;;37.80;37.81;99126.09;5053850;28;19920;-39
2022/07/24 12:05:45;;;;;;;;;;;;;;;39.40;37.88;99125.84;5053416;28;20041;-39
2022/07/24 12:08:19;;;;;;;;;;;;;;;40.10;34.31;99115.00;5052060;28;19916;-39
2022/07/24 12:10:44;;;;;;;;;;;;;;;39.13;37.54;99120.06;5051628;28;19932;-39
2022/07/24 12:13:10;;;;;;;;;;;;;;;40.64;37.31;99117.38;5049667;28;20542;-39
2022/07/24 12:15:36;;;;;;;;;;;;;;;39.74;34.76;99110.72;5054772;28;20363;-39
2022/07/24 12:18:03;;;;;;;;;;;;;;;39.82;34.32;99107.66;5051178;28;19926;-39
2022/07/24 12:20:30;;;;;;;;;;;;;;;40.35;34.89;99114.72;5053718;28;20476;-40
2022/07/24 12:22:55;;;;;;;;;;;;;;;39.77;33.37;99104.84;5052044;28;19966;-39
2022/07/24 12:25:20;;;;;;;;;;;;;;;41.05;32.04;99098.38;5048160;28;19920;-39
2022/07/24 12:27:47;;;;;;;;;;;;;;;42.28;30.30;99095.47;5050670;28;19916;-40
2022/07/24 12:30:20;;;;;;;;;;;;;;;41.50;28.55;99094.75;5053516;28;19920;-39
2022/07/24 12:32:57;;;;;;;;;;;;;;;38.66;34.69;99100.03;5052226;28;19970;-39
2022/07/24 12:35:22;;;;;;;;;;;;;;;38.60;36.41;99100.13;5053444;28;20516;-39
2022/07/24 12:37:48;;;;;;;;;;;;;;;40.34;34.55;99086.06;5052159;28;19927;-39